sensor_id;sensor_type;location;lat;lon;timestamp;temperature;humidity
40670;DHT22;26355;45.528;9.234;2022-11-04T00:01:14;16.20;99.90
40670;DHT22;26355;45.528;9.234;2022-11-04T00:03:40;16.00;99.90
40670;DHT22;26355;45.528;9.234;2022-11-04T00:06:07;16.10;99.90
40670;DHT22;26355;45.528;9.234;2022-11-04T00:08:33;16.20;99.90
40670;DHT22;26355;45.528;9.234;2022-11-04T00:10:59;16.10;99.90
40670;DHT22;26355;45.528;9.234;2022-11-04T00:13:45;16.20;99.90
40670;DHT22;26355;45.528;9.234;2022-11-04T00:16:11;16.20;99.90
40670;DHT22;26355;45.528;9.234;2022-11-04T00:18:55;16.30;99.90
40670;DHT22;26355;45.528;9.234;2022-11-04T00:21:21;16.30;99.90
40670;DHT22;26355;45.528;9.234;2022-11-04T00:24:05;16.30;99.90
40670;DHT22;26355;45.528;9.234;2022-11-04T00:26:51;16.30;99.90
40670;DHT22;26355;45.528;9.234;2022-11-04T00:29:35;16.30;99.90
40670;DHT22;26355;45.528;9.234;2022-11-04T00:32:01;16.40;99.90
40670;DHT22;26355;45.528;9.234;2022-11-04T00:34:45;16.50;99.90
40670;DHT22;26355;45.528;9.234;2022-11-04T00:37:11;16.30;99.90
40670;DHT22;26355;45.528;9.234;2022-11-04T00:39:39;16.30;99.90
40670;DHT22;26355;45.528;9.234;2022-11-04T00:42:04;16.20;99.90
40670;DHT22;26355;45.528;9.234;2022-11-04T00:44:30;16.40;99.90
40670;DHT22;26355;45.528;9.234;2022-11-04T00:46:56;16.30;99.90
40670;DHT22;26355;45.528;9.234;2022-11-04T00:49:21;16.30;99.90
40670;DHT22;26355;45.528;9.234;2022-11-04T00:51:47;16.30;99.90
40670;DHT22;26355;45.528;9.234;2022-11-04T00:54:13;16.30;99.90
40670;DHT22;26355;45.528;9.234;2022-11-04T00:56:39;16.40;99.90
40670;DHT22;26355;45.528;9.234;2022-11-04T00:59:13;16.30;99.90
40670;DHT22;26355;45.528;9.234;2022-11-04T01:01:39;16.40;99.90
40670;DHT22;26355;45.528;9.234;2022-11-04T01:04:05;16.30;99.90
40670;DHT22;26355;45.528;9.234;2022-11-04T01:06:33;16.40;99.90
40670;DHT22;26355;45.528;9.234;2022-11-04T01:09:04;16.30;99.90
40670;DHT22;26355;45.528;9.234;2022-11-04T01:11:30;16.30;99.90
40670;DHT22;26355;45.528;9.234;2022-11-04T01:13:57;16.30;99.90
40670;DHT22;26355;45.528;9.234;2022-11-04T01:16:23;16.30;99.90
40670;DHT22;26355;45.528;9.234;2022-11-04T01:18:49;16.40;99.90
40670;DHT22;26355;45.528;9.234;2022-11-04T01:21:16;16.30;99.90
40670;DHT22;26355;45.528;9.234;2022-11-04T01:23:43;16.20;99.90
40670;DHT22;26355;45.528;9.234;2022-11-04T01:26:16;16.30;99.90
40670;DHT22;26355;45.528;9.234;2022-11-04T01:28:43;16.20;99.90
40670;DHT22;26355;45.528;9.234;2022-11-04T01:31:14;16.30;99.90
40670;DHT22;26355;45.528;9.234;2022-11-04T01:33:42;16.30;99.90
40670;DHT22;26355;45.528;9.234;2022-11-04T01:36:09;16.30;99.90
40670;DHT22;26355;45.528;9.234;2022-11-04T01:38:39;16.30;99.90
40670;DHT22;26355;45.528;9.234;2022-11-04T01:41:09;16.60;99.90
40670;DHT22;26355;45.528;9.234;2022-11-04T01:43:47;16.30;99.90
40670;DHT22;26355;45.528;9.234;2022-11-04T01:46:35;16.30;99.90
40670;DHT22;26355;45.528;9.234;2022-11-04T01:49:30;16.30;99.90
40670;DHT22;26355;45.528;9.234;2022-11-04T01:52:11;16.30;99.90
40670;DHT22;26355;45.528;9.234;2022-11-04T01:54:46;16.30;99.90
40670;DHT22;26355;45.528;9.234;2022-11-04T01:57:19;16.30;99.90
40670;DHT22;26355;45.528;9.234;2022-11-04T01:59:48;16.30;99.90
40670;DHT22;26355;45.528;9.234;2022-11-04T02:02:14;16.30;99.90
40670;DHT22;26355;45.528;9.234;2022-11-04T02:04:40;16.30;99.90
40670;DHT22;26355;45.528;9.234;2022-11-04T02:07:12;16.30;99.90
40670;DHT22;26355;45.528;9.234;2022-11-04T02:09:41;16.20;99.90
40670;DHT22;26355;45.528;9.234;2022-11-04T02:12:10;16.30;99.90
40670;DHT22;26355;45.528;9.234;2022-11-04T02:14:54;16.20;99.90
40670;DHT22;26355;45.528;9.234;2022-11-04T02:17:40;16.20;99.90
40670;DHT22;26355;45.528;9.234;2022-11-04T02:34:10;16.10;99.90
40670;DHT22;26355;45.528;9.234;2022-11-04T02:36:47;16.10;99.90
40670;DHT22;26355;45.528;9.234;2022-11-04T02:39:50;16.10;99.90
40670;DHT22;26355;45.528;9.234;2022-11-04T02:45:17;16.00;99.90
40670;DHT22;26355;45.528;9.234;2022-11-04T02:47:51;16.10;99.90
40670;DHT22;26355;45.528;9.234;2022-11-04T02:53:11;15.90;99.90
40670;DHT22;26355;45.528;9.234;2022-11-04T02:55:43;16.00;99.90
40670;DHT22;26355;45.528;9.234;2022-11-04T02:58:20;15.80;99.90
40670;DHT22;26355;45.528;9.234;2022-11-04T03:00:46;15.80;99.90
40670;DHT22;26355;45.528;9.234;2022-11-04T03:03:20;15.70;99.90
40670;DHT22;26355;45.528;9.234;2022-11-04T03:05:50;15.70;99.90
40670;DHT22;26355;45.528;9.234;2022-11-04T03:08:33;15.70;99.90
40670;DHT22;26355;45.528;9.234;2022-11-04T03:11:15;15.70;99.90
40670;DHT22;26355;45.528;9.234;2022-11-04T03:14:00;15.70;99.90
40670;DHT22;26355;45.528;9.234;2022-11-04T03:19:04;15.50;99.90
40670;DHT22;26355;45.528;9.234;2022-11-04T03:21:33;15.40;99.90
40670;DHT22;26355;45.528;9.234;2022-11-04T03:24:01;15.30;99.90
40670;DHT22;26355;45.528;9.234;2022-11-04T03:26:31;15.40;99.90
40670;DHT22;26355;45.528;9.234;2022-11-04T03:29:02;15.30;99.90
40670;DHT22;26355;45.528;9.234;2022-11-04T03:34:16;15.20;99.90
40670;DHT22;26355;45.528;9.234;2022-11-04T03:36:42;15.10;99.90
40670;DHT22;26355;45.528;9.234;2022-11-04T03:42:31;15.20;99.90
40670;DHT22;26355;45.528;9.234;2022-11-04T03:44:59;15.10;99.90
40670;DHT22;26355;45.528;9.234;2022-11-04T03:47:26;15.10;99.90
40670;DHT22;26355;45.528;9.234;2022-11-04T03:52:39;15.20;99.90
40670;DHT22;26355;45.528;9.234;2022-11-04T03:55:05;15.10;99.90
40670;DHT22;26355;45.528;9.234;2022-11-04T03:58:01;15.10;99.90
40670;DHT22;26355;45.528;9.234;2022-11-04T04:00:33;15.10;99.90
40670;DHT22;26355;45.528;9.234;2022-11-04T04:05:45;15.10;99.90
40670;DHT22;26355;45.528;9.234;2022-11-04T04:08:37;15.10;99.90
40670;DHT22;26355;45.528;9.234;2022-11-04T04:14:05;15.10;99.90
40670;DHT22;26355;45.528;9.234;2022-11-04T04:16:40;15.00;99.90
40670;DHT22;26355;45.528;9.234;2022-11-04T04:19:17;14.90;99.90
40670;DHT22;26355;45.528;9.234;2022-11-04T04:21:49;14.70;99.90
40670;DHT22;26355;45.528;9.234;2022-11-04T04:24:20;14.70;99.90
40670;DHT22;26355;45.528;9.234;2022-11-04T04:27:06;14.80;99.90
40670;DHT22;26355;45.528;9.234;2022-11-04T04:29:52;14.80;99.90
40670;DHT22;26355;45.528;9.234;2022-11-04T04:32:19;14.70;99.90
40670;DHT22;26355;45.528;9.234;2022-11-04T04:34:45;14.70;99.90
40670;DHT22;26355;45.528;9.234;2022-11-04T04:37:21;14.40;99.90
40670;DHT22;26355;45.528;9.234;2022-11-04T04:39:51;14.50;99.90
40670;DHT22;26355;45.528;9.234;2022-11-04T04:42:36;14.50;99.90
40670;DHT22;26355;45.528;9.234;2022-11-04T04:45:33;14.50;99.90
40670;DHT22;26355;45.528;9.234;2022-11-04T04:48:00;14.30;99.90
40670;DHT22;26355;45.528;9.234;2022-11-04T04:50:47;14.40;99.90
40670;DHT22;26355;45.528;9.234;2022-11-04T04:53:13;14.40;99.90
40670;DHT22;26355;45.528;9.234;2022-11-04T04:55:39;15.20;99.90
40670;DHT22;26355;45.528;9.234;2022-11-04T04:58:04;14.30;99.90
40670;DHT22;26355;45.528;9.234;2022-11-04T05:00:30;14.30;99.90
40670;DHT22;26355;45.528;9.234;2022-11-04T05:02:55;14.30;99.90
40670;DHT22;26355;45.528;9.234;2022-11-04T05:05:21;14.30;99.90
40670;DHT22;26355;45.528;9.234;2022-11-04T05:07:47;14.20;99.90
40670;DHT22;26355;45.528;9.234;2022-11-04T05:10:13;14.20;99.90
40670;DHT22;26355;45.528;9.234;2022-11-04T05:12:40;14.20;99.90
40670;DHT22;26355;45.528;9.234;2022-11-04T05:15:25;14.80;99.90
40670;DHT22;26355;45.528;9.234;2022-11-04T05:17:55;14.20;99.90
40670;DHT22;26355;45.528;9.234;2022-11-04T05:20:21;14.10;99.90
40670;DHT22;26355;45.528;9.234;2022-11-04T05:22:47;14.00;99.90
40670;DHT22;26355;45.528;9.234;2022-11-04T05:25:12;14.10;99.90
40670;DHT22;26355;45.528;9.234;2022-11-04T05:27:38;14.60;99.90
40670;DHT22;26355;45.528;9.234;2022-11-04T05:30:04;14.20;99.90
40670;DHT22;26355;45.528;9.234;2022-11-04T05:32:30;14.20;99.90
40670;DHT22;26355;45.528;9.234;2022-11-04T05:34:56;14.20;99.90
40670;DHT22;26355;45.528;9.234;2022-11-04T05:37:21;15.00;99.90
40670;DHT22;26355;45.528;9.234;2022-11-04T05:39:47;14.20;99.90
40670;DHT22;26355;45.528;9.234;2022-11-04T05:42:13;14.10;99.90
40670;DHT22;26355;45.528;9.234;2022-11-04T05:44:38;14.30;99.90
40670;DHT22;26355;45.528;9.234;2022-11-04T05:47:04;14.00;99.90
40670;DHT22;26355;45.528;9.234;2022-11-04T05:49:29;14.00;99.90
40670;DHT22;26355;45.528;9.234;2022-11-04T05:51:55;14.00;99.90
40670;DHT22;26355;45.528;9.234;2022-11-04T05:54:21;14.30;99.90
40670;DHT22;26355;45.528;9.234;2022-11-04T05:56:47;13.90;99.90
40670;DHT22;26355;45.528;9.234;2022-11-04T05:59:12;14.10;99.90
40670;DHT22;26355;45.528;9.234;2022-11-04T06:01:40;14.00;99.90
40670;DHT22;26355;45.528;9.234;2022-11-04T06:04:06;14.00;99.90
40670;DHT22;26355;45.528;9.234;2022-11-04T06:06:35;14.00;99.90
40670;DHT22;26355;45.528;9.234;2022-11-04T06:09:01;14.00;99.90
40670;DHT22;26355;45.528;9.234;2022-11-04T06:11:28;14.00;99.90
40670;DHT22;26355;45.528;9.234;2022-11-04T06:13:55;14.00;99.90
40670;DHT22;26355;45.528;9.234;2022-11-04T06:16:21;13.90;99.90
40670;DHT22;26355;45.528;9.234;2022-11-04T06:18:47;13.90;99.90
40670;DHT22;26355;45.528;9.234;2022-11-04T06:23:41;13.80;99.90
40670;DHT22;26355;45.528;9.234;2022-11-04T06:26:08;14.40;99.90
40670;DHT22;26355;45.528;9.234;2022-11-04T06:28:34;13.90;99.90
40670;DHT22;26355;45.528;9.234;2022-11-04T06:31:01;14.40;99.90
40670;DHT22;26355;45.528;9.234;2022-11-04T06:33:27;15.00;99.90
40670;DHT22;26355;45.528;9.234;2022-11-04T06:36:01;14.30;99.90
40670;DHT22;26355;45.528;9.234;2022-11-04T06:38:33;14.00;99.90
40670;DHT22;26355;45.528;9.234;2022-11-04T06:40:59;14.10;99.90
40670;DHT22;26355;45.528;9.234;2022-11-04T06:43:25;14.10;99.90
40670;DHT22;26355;45.528;9.234;2022-11-04T06:45:55;14.20;99.90
40670;DHT22;26355;45.528;9.234;2022-11-04T06:48:20;14.20;99.90
40670;DHT22;26355;45.528;9.234;2022-11-04T06:50:46;14.30;99.90
40670;DHT22;26355;45.528;9.234;2022-11-04T06:53:12;14.40;99.90
40670;DHT22;26355;45.528;9.234;2022-11-04T06:55:37;14.40;99.90
40670;DHT22;26355;45.528;9.234;2022-11-04T06:58:03;14.50;99.90
40670;DHT22;26355;45.528;9.234;2022-11-04T07:00:29;14.50;99.90
40670;DHT22;26355;45.528;9.234;2022-11-04T07:02:54;14.60;99.90
40670;DHT22;26355;45.528;9.234;2022-11-04T07:05:20;14.70;99.90
40670;DHT22;26355;45.528;9.234;2022-11-04T07:07:46;14.90;99.90
40670;DHT22;26355;45.528;9.234;2022-11-04T07:10:11;14.70;99.90
40670;DHT22;26355;45.528;9.234;2022-11-04T07:12:37;14.80;99.90
40670;DHT22;26355;45.528;9.234;2022-11-04T07:15:03;15.00;99.90
40670;DHT22;26355;45.528;9.234;2022-11-04T07:17:29;15.20;99.90
40670;DHT22;26355;45.528;9.234;2022-11-04T07:19:54;15.30;99.90
40670;DHT22;26355;45.528;9.234;2022-11-04T07:22:20;15.70;99.90
40670;DHT22;26355;45.528;9.234;2022-11-04T07:24:45;16.40;99.90
40670;DHT22;26355;45.528;9.234;2022-11-04T07:27:11;17.10;99.90
40670;DHT22;26355;45.528;9.234;2022-11-04T07:29:36;17.40;99.90
40670;DHT22;26355;45.528;9.234;2022-11-04T07:32:02;17.20;99.90
40670;DHT22;26355;45.528;9.234;2022-11-04T07:34:28;17.00;99.90
40670;DHT22;26355;45.528;9.234;2022-11-04T07:36:53;16.70;99.90
40670;DHT22;26355;45.528;9.234;2022-11-04T07:39:19;16.60;99.90
40670;DHT22;26355;45.528;9.234;2022-11-04T07:41:44;16.40;99.90
40670;DHT22;26355;45.528;9.234;2022-11-04T07:44:11;16.20;99.90
40670;DHT22;26355;45.528;9.234;2022-11-04T07:46:36;16.30;99.90
40670;DHT22;26355;45.528;9.234;2022-11-04T07:49:02;16.10;99.90
40670;DHT22;26355;45.528;9.234;2022-11-04T07:51:29;16.10;99.90
40670;DHT22;26355;45.528;9.234;2022-11-04T07:53:56;16.00;99.90
40670;DHT22;26355;45.528;9.234;2022-11-04T07:56:22;16.10;99.90
40670;DHT22;26355;45.528;9.234;2022-11-04T07:58:49;16.10;99.90
40670;DHT22;26355;45.528;9.234;2022-11-04T08:01:17;16.20;99.90
40670;DHT22;26355;45.528;9.234;2022-11-04T08:03:42;16.20;99.90
40670;DHT22;26355;45.528;9.234;2022-11-04T08:06:10;16.30;99.90
40670;DHT22;26355;45.528;9.234;2022-11-04T08:08:36;16.30;99.90
40670;DHT22;26355;45.528;9.234;2022-11-04T08:11:22;16.40;99.90
40670;DHT22;26355;45.528;9.234;2022-11-04T08:13:49;16.40;99.90
40670;DHT22;26355;45.528;9.234;2022-11-04T08:16:19;16.40;99.90
40670;DHT22;26355;45.528;9.234;2022-11-04T08:18:45;16.50;99.90
40670;DHT22;26355;45.528;9.234;2022-11-04T08:21:12;16.60;99.90
40670;DHT22;26355;45.528;9.234;2022-11-04T08:23:38;16.60;99.90
40670;DHT22;26355;45.528;9.234;2022-11-04T08:26:11;16.70;99.90
40670;DHT22;26355;45.528;9.234;2022-11-04T08:28:37;16.90;99.90
40670;DHT22;26355;45.528;9.234;2022-11-04T08:31:09;17.00;99.90
40670;DHT22;26355;45.528;9.234;2022-11-04T08:33:36;17.20;99.90
40670;DHT22;26355;45.528;9.234;2022-11-04T08:36:06;17.20;99.90
40670;DHT22;26355;45.528;9.234;2022-11-04T08:38:35;17.30;99.90
40670;DHT22;26355;45.528;9.234;2022-11-04T08:41:03;17.40;99.90
40670;DHT22;26355;45.528;9.234;2022-11-04T08:43:29;17.60;99.90
40670;DHT22;26355;45.528;9.234;2022-11-04T08:45:55;17.60;99.90
40670;DHT22;26355;45.528;9.234;2022-11-04T08:48:21;17.70;99.90
40670;DHT22;26355;45.528;9.234;2022-11-04T08:50:55;17.90;99.90
40670;DHT22;26355;45.528;9.234;2022-11-04T08:53:21;18.00;99.90
40670;DHT22;26355;45.528;9.234;2022-11-04T08:55:47;18.10;99.90
40670;DHT22;26355;45.528;9.234;2022-11-04T08:58:13;18.30;99.90
40670;DHT22;26355;45.528;9.234;2022-11-04T09:00:39;18.60;99.90
40670;DHT22;26355;45.528;9.234;2022-11-04T09:03:05;18.70;99.90
40670;DHT22;26355;45.528;9.234;2022-11-04T09:05:52;19.10;99.90
40670;DHT22;26355;45.528;9.234;2022-11-04T09:09:25;19.30;99.80
40670;DHT22;26355;45.528;9.234;2022-11-04T09:11:59;19.70;99.60
40670;DHT22;26355;45.528;9.234;2022-11-04T09:14:33;19.90;99.90
40670;DHT22;26355;45.528;9.234;2022-11-04T09:16:58;20.30;99.90
40670;DHT22;26355;45.528;9.234;2022-11-04T09:19:27;20.50;99.00
40670;DHT22;26355;45.528;9.234;2022-11-04T09:21:53;20.70;97.90
40670;DHT22;26355;45.528;9.234;2022-11-04T09:24:18;21.00;97.60
40670;DHT22;26355;45.528;9.234;2022-11-04T09:26:44;21.10;97.40
40670;DHT22;26355;45.528;9.234;2022-11-04T09:29:10;21.40;97.60
40670;DHT22;26355;45.528;9.234;2022-11-04T09:31:36;21.50;98.00
40670;DHT22;26355;45.528;9.234;2022-11-04T09:34:02;21.60;98.10
40670;DHT22;26355;45.528;9.234;2022-11-04T09:36:28;21.70;98.30
40670;DHT22;26355;45.528;9.234;2022-11-04T09:38:53;21.90;98.10
40670;DHT22;26355;45.528;9.234;2022-11-04T09:44:23;22.10;97.20
40670;DHT22;26355;45.528;9.234;2022-11-04T09:46:57;22.20;95.20
40670;DHT22;26355;45.528;9.234;2022-11-04T09:49:27;22.30;95.10
40670;DHT22;26355;45.528;9.234;2022-11-04T09:51:53;22.40;94.70
40670;DHT22;26355;45.528;9.234;2022-11-04T09:54:26;22.40;94.90
40670;DHT22;26355;45.528;9.234;2022-11-04T09:56:54;22.50;94.20
40670;DHT22;26355;45.528;9.234;2022-11-04T09:59:29;22.40;93.90
40670;DHT22;26355;45.528;9.234;2022-11-04T10:11:29;22.90;92.20
40670;DHT22;26355;45.528;9.234;2022-11-04T10:20:24;23.00;92.90
40670;DHT22;26355;45.528;9.234;2022-11-04T10:23:16;23.20;91.80
40670;DHT22;26355;45.528;9.234;2022-11-04T10:25:47;23.30;91.20
40670;DHT22;26355;45.528;9.234;2022-11-04T10:28:38;23.40;92.00
40670;DHT22;26355;45.528;9.234;2022-11-04T10:31:23;23.70;90.70
40670;DHT22;26355;45.528;9.234;2022-11-04T10:34:07;24.00;91.60
40670;DHT22;26355;45.528;9.234;2022-11-04T10:36:34;24.10;89.30
40670;DHT22;26355;45.528;9.234;2022-11-04T10:39:06;25.60;90.20
40670;DHT22;26355;45.528;9.234;2022-11-04T10:41:36;27.10;89.60
40670;DHT22;26355;45.528;9.234;2022-11-04T10:46:54;29.60;83.70
40670;DHT22;26355;45.528;9.234;2022-11-04T10:52:05;30.30;80.30
40670;DHT22;26355;45.528;9.234;2022-11-04T10:54:42;30.90;81.90
40670;DHT22;26355;45.528;9.234;2022-11-04T10:57:09;31.60;78.50
40670;DHT22;26355;45.528;9.234;2022-11-04T10:59:47;32.10;77.90
40670;DHT22;26355;45.528;9.234;2022-11-04T11:02:14;32.00;73.70
40670;DHT22;26355;45.528;9.234;2022-11-04T11:04:40;31.80;74.90
40670;DHT22;26355;45.528;9.234;2022-11-04T11:07:10;31.70;74.60
40670;DHT22;26355;45.528;9.234;2022-11-04T11:14:40;32.20;72.10
40670;DHT22;26355;45.528;9.234;2022-11-04T11:17:19;32.60;72.30
40670;DHT22;26355;45.528;9.234;2022-11-04T11:19:55;32.20;70.30
40670;DHT22;26355;45.528;9.234;2022-11-04T11:22:40;32.00;70.40
40670;DHT22;26355;45.528;9.234;2022-11-04T11:27:39;32.20;70.90
40670;DHT22;26355;45.528;9.234;2022-11-04T11:30:05;32.80;71.40
40670;DHT22;26355;45.528;9.234;2022-11-04T11:32:33;33.10;70.60
40670;DHT22;26355;45.528;9.234;2022-11-04T11:35:00;33.00;69.80
40670;DHT22;26355;45.528;9.234;2022-11-04T11:37:28;32.70;70.40
40670;DHT22;26355;45.528;9.234;2022-11-04T11:39:57;32.60;70.40
40670;DHT22;26355;45.528;9.234;2022-11-04T11:42:23;32.20;69.70
40670;DHT22;26355;45.528;9.234;2022-11-04T11:44:51;31.60;71.20
40670;DHT22;26355;45.528;9.234;2022-11-04T11:50:14;29.10;74.00
40670;DHT22;26355;45.528;9.234;2022-11-04T11:52:47;27.20;74.90
40670;DHT22;26355;45.528;9.234;2022-11-04T11:55:27;26.10;77.90
40670;DHT22;26355;45.528;9.234;2022-11-04T12:00:53;24.70;82.40
40670;DHT22;26355;45.528;9.234;2022-11-04T12:03:31;24.10;84.70
40670;DHT22;26355;45.528;9.234;2022-11-04T12:09:00;23.60;86.20
40670;DHT22;26355;45.528;9.234;2022-11-04T12:17:15;22.90;88.50
40670;DHT22;26355;45.528;9.234;2022-11-04T12:22:57;22.40;90.50
40670;DHT22;26355;45.528;9.234;2022-11-04T12:28:32;21.90;90.80
40670;DHT22;26355;45.528;9.234;2022-11-04T12:33:42;21.90;91.90
40670;DHT22;26355;45.528;9.234;2022-11-04T12:39:14;21.90;91.60
40670;DHT22;26355;45.528;9.234;2022-11-04T12:44:41;21.50;92.80
40670;DHT22;26355;45.528;9.234;2022-11-04T12:47:34;21.40;93.10
40670;DHT22;26355;45.528;9.234;2022-11-04T12:58:50;20.90;94.40
40670;DHT22;26355;45.528;9.234;2022-11-04T13:01:39;20.90;95.10
40670;DHT22;26355;45.528;9.234;2022-11-04T13:07:01;20.80;96.20
40670;DHT22;26355;45.528;9.234;2022-11-04T13:09:48;20.80;96.70
40670;DHT22;26355;45.528;9.234;2022-11-04T13:12:16;20.70;97.40
40670;DHT22;26355;45.528;9.234;2022-11-04T13:14:50;20.40;97.50
40670;DHT22;26355;45.528;9.234;2022-11-04T13:17:22;20.60;97.70
40670;DHT22;26355;45.528;9.234;2022-11-04T13:19:52;20.60;97.70
40670;DHT22;26355;45.528;9.234;2022-11-04T13:22:22;20.70;97.40
40670;DHT22;26355;45.528;9.234;2022-11-04T13:24:54;20.60;97.20
40670;DHT22;26355;45.528;9.234;2022-11-04T13:27:24;20.60;97.60
40670;DHT22;26355;45.528;9.234;2022-11-04T13:30:04;20.60;97.70
40670;DHT22;26355;45.528;9.234;2022-11-04T13:35:34;20.70;98.20
40670;DHT22;26355;45.528;9.234;2022-11-04T13:38:17;20.70;98.00
40670;DHT22;26355;45.528;9.234;2022-11-04T13:43:33;20.50;98.00
40670;DHT22;26355;45.528;9.234;2022-11-04T13:48:36;20.50;98.10
40670;DHT22;26355;45.528;9.234;2022-11-04T13:51:08;20.60;98.30
40670;DHT22;26355;45.528;9.234;2022-11-04T13:56:34;20.60;98.60
40670;DHT22;26355;45.528;9.234;2022-11-04T13:59:18;20.50;98.30
40670;DHT22;26355;45.528;9.234;2022-11-04T14:01:46;20.60;98.10
40670;DHT22;26355;45.528;9.234;2022-11-04T14:07:23;20.60;98.20
40670;DHT22;26355;45.528;9.234;2022-11-04T14:14:36;20.60;98.00
40670;DHT22;26355;45.528;9.234;2022-11-04T14:17:02;20.60;98.00
40670;DHT22;26355;45.528;9.234;2022-11-04T14:22:54;20.50;98.00
40670;DHT22;26355;45.528;9.234;2022-11-04T14:25:29;20.50;97.90
40670;DHT22;26355;45.528;9.234;2022-11-04T14:28:16;20.50;98.00
40670;DHT22;26355;45.528;9.234;2022-11-04T14:30:57;20.40;97.90
40670;DHT22;26355;45.528;9.234;2022-11-04T14:33:34;20.30;97.90
40670;DHT22;26355;45.528;9.234;2022-11-04T14:46:44;20.00;98.20
40670;DHT22;26355;45.528;9.234;2022-11-04T14:49:37;20.00;98.40
40670;DHT22;26355;45.528;9.234;2022-11-04T14:52:05;19.90;98.40
40670;DHT22;26355;45.528;9.234;2022-11-04T14:54:37;19.80;98.60
40670;DHT22;26355;45.528;9.234;2022-11-04T14:59:39;19.80;99.10
40670;DHT22;26355;45.528;9.234;2022-11-04T15:02:14;19.70;99.10
40670;DHT22;26355;45.528;9.234;2022-11-04T15:04:51;19.70;99.10
40670;DHT22;26355;45.528;9.234;2022-11-04T15:07:32;19.60;99.20
40670;DHT22;26355;45.528;9.234;2022-11-04T15:09:59;19.60;99.40
40670;DHT22;26355;45.528;9.234;2022-11-04T15:12:26;19.50;99.60
40670;DHT22;26355;45.528;9.234;2022-11-04T15:15:32;19.60;99.70
40670;DHT22;26355;45.528;9.234;2022-11-04T15:20:30;19.50;99.90
40670;DHT22;26355;45.528;9.234;2022-11-04T15:22:59;19.40;99.90
40670;DHT22;26355;45.528;9.234;2022-11-04T15:25:25;19.40;99.90
40670;DHT22;26355;45.528;9.234;2022-11-04T15:27:51;19.40;99.90
40670;DHT22;26355;45.528;9.234;2022-11-04T15:30:24;19.40;99.90
40670;DHT22;26355;45.528;9.234;2022-11-04T15:32:58;19.30;99.90
40670;DHT22;26355;45.528;9.234;2022-11-04T15:35:26;19.20;99.90
40670;DHT22;26355;45.528;9.234;2022-11-04T15:37:53;19.20;99.90
40670;DHT22;26355;45.528;9.234;2022-11-04T15:40:20;19.20;99.90
40670;DHT22;26355;45.528;9.234;2022-11-04T15:42:47;19.00;99.90
40670;DHT22;26355;45.528;9.234;2022-11-04T15:48:23;18.90;99.90
40670;DHT22;26355;45.528;9.234;2022-11-04T15:53:49;19.00;99.90
40670;DHT22;26355;45.528;9.234;2022-11-04T15:56:17;19.00;99.90
40670;DHT22;26355;45.528;9.234;2022-11-04T15:58:44;18.90;99.90
40670;DHT22;26355;45.528;9.234;2022-11-04T16:01:15;18.90;99.90
40670;DHT22;26355;45.528;9.234;2022-11-04T16:03:56;18.90;99.90
40670;DHT22;26355;45.528;9.234;2022-11-04T16:06:37;18.80;99.90
40670;DHT22;26355;45.528;9.234;2022-11-04T16:11:36;18.80;99.90
40670;DHT22;26355;45.528;9.234;2022-11-04T16:14:21;18.80;99.90
40670;DHT22;26355;45.528;9.234;2022-11-04T16:16:49;18.70;99.90
40670;DHT22;26355;45.528;9.234;2022-11-04T16:19:24;18.70;99.90
40670;DHT22;26355;45.528;9.234;2022-11-04T16:21:59;18.70;99.90
40670;DHT22;26355;45.528;9.234;2022-11-04T16:24:29;18.70;99.90
40670;DHT22;26355;45.528;9.234;2022-11-04T16:26:56;18.60;99.90
40670;DHT22;26355;45.528;9.234;2022-11-04T16:29:27;18.60;99.90
40670;DHT22;26355;45.528;9.234;2022-11-04T16:32:14;18.60;99.90
40670;DHT22;26355;45.528;9.234;2022-11-04T16:34:41;18.50;99.90
40670;DHT22;26355;45.528;9.234;2022-11-04T16:37:07;18.40;99.90
40670;DHT22;26355;45.528;9.234;2022-11-04T16:39:33;18.50;99.90
40670;DHT22;26355;45.528;9.234;2022-11-04T16:41:59;18.40;99.90
40670;DHT22;26355;45.528;9.234;2022-11-04T16:44:25;18.40;99.90
40670;DHT22;26355;45.528;9.234;2022-11-04T16:46:51;18.30;99.90
40670;DHT22;26355;45.528;9.234;2022-11-04T16:49:18;18.10;99.90
40670;DHT22;26355;45.528;9.234;2022-11-04T16:52:01;18.20;99.90
40670;DHT22;26355;45.528;9.234;2022-11-04T16:54:29;18.10;99.90
40670;DHT22;26355;45.528;9.234;2022-11-04T16:56:55;18.00;99.90
40670;DHT22;26355;45.528;9.234;2022-11-04T16:59:49;18.00;99.90
40670;DHT22;26355;45.528;9.234;2022-11-04T17:02:25;18.00;99.90
40670;DHT22;26355;45.528;9.234;2022-11-04T17:05:07;18.00;99.90
40670;DHT22;26355;45.528;9.234;2022-11-04T17:07:40;18.00;99.90
40670;DHT22;26355;45.528;9.234;2022-11-04T17:10:19;18.10;99.90
40670;DHT22;26355;45.528;9.234;2022-11-04T17:12:47;18.00;99.90
40670;DHT22;26355;45.528;9.234;2022-11-04T17:15:14;18.00;99.90
40670;DHT22;26355;45.528;9.234;2022-11-04T17:17:42;18.00;99.90
40670;DHT22;26355;45.528;9.234;2022-11-04T17:20:13;18.00;99.90
40670;DHT22;26355;45.528;9.234;2022-11-04T17:22:39;17.90;99.90
40670;DHT22;26355;45.528;9.234;2022-11-04T17:25:16;17.90;99.90
40670;DHT22;26355;45.528;9.234;2022-11-04T17:27:42;17.90;99.90
40670;DHT22;26355;45.528;9.234;2022-11-04T17:30:08;17.90;99.90
40670;DHT22;26355;45.528;9.234;2022-11-04T17:32:34;18.00;99.90
40670;DHT22;26355;45.528;9.234;2022-11-04T17:35:00;18.00;99.90
40670;DHT22;26355;45.528;9.234;2022-11-04T17:37:26;17.90;99.90
40670;DHT22;26355;45.528;9.234;2022-11-04T17:39:51;17.90;99.90
40670;DHT22;26355;45.528;9.234;2022-11-04T17:42:17;17.90;99.90
40670;DHT22;26355;45.528;9.234;2022-11-04T17:45:01;17.90;99.90
40670;DHT22;26355;45.528;9.234;2022-11-04T17:47:27;17.80;99.90
40670;DHT22;26355;45.528;9.234;2022-11-04T17:49:52;17.90;99.90
40670;DHT22;26355;45.528;9.234;2022-11-04T17:52:18;17.80;99.90
40670;DHT22;26355;45.528;9.234;2022-11-04T17:54:44;17.70;99.90
40670;DHT22;26355;45.528;9.234;2022-11-04T17:57:10;17.80;99.90
40670;DHT22;26355;45.528;9.234;2022-11-04T17:59:35;17.80;99.90
40670;DHT22;26355;45.528;9.234;2022-11-04T18:02:01;17.60;99.90
40670;DHT22;26355;45.528;9.234;2022-11-04T18:04:27;17.60;99.90
40670;DHT22;26355;45.528;9.234;2022-11-04T18:06:55;17.60;99.90
40670;DHT22;26355;45.528;9.234;2022-11-04T18:09:23;17.60;99.90
40670;DHT22;26355;45.528;9.234;2022-11-04T18:12:00;17.60;99.90
40670;DHT22;26355;45.528;9.234;2022-11-04T18:14:48;17.60;99.90
40670;DHT22;26355;45.528;9.234;2022-11-04T18:17:17;17.50;99.90
40670;DHT22;26355;45.528;9.234;2022-11-04T18:19:42;17.50;99.90
40670;DHT22;26355;45.528;9.234;2022-11-04T18:22:08;17.40;99.90
40670;DHT22;26355;45.528;9.234;2022-11-04T18:24:34;17.40;99.90
40670;DHT22;26355;45.528;9.234;2022-11-04T18:27:02;17.40;99.90
40670;DHT22;26355;45.528;9.234;2022-11-04T18:29:28;17.40;99.90
40670;DHT22;26355;45.528;9.234;2022-11-04T18:31:54;17.30;99.90